sensor_id;sensor_type;location;lat;lon;timestamp;temperature;humidity
17988;DHT22;9119;50.932;5.342;2023-06-22T00:01:55;22.40;99.90
17988;DHT22;9119;50.932;5.342;2023-06-22T00:04:21;22.40;99.90
17988;DHT22;9119;50.932;5.342;2023-06-22T00:06:46;22.50;99.90
17988;DHT22;9119;50.932;5.342;2023-06-22T00:09:12;22.60;99.90
17988;DHT22;9119;50.932;5.342;2023-06-22T00:11:38;22.60;99.90
17988;DHT22;9119;50.932;5.342;2023-06-22T00:14:04;22.50;99.90
17988;DHT22;9119;50.932;5.342;2023-06-22T00:16:32;22.40;99.90
17988;DHT22;9119;50.932;5.342;2023-06-22T00:18:58;22.30;99.90
17988;DHT22;9119;50.932;5.342;2023-06-22T00:21:26;22.20;99.90
17988;DHT22;9119;50.932;5.342;2023-06-22T00:23:52;22.40;99.90
17988;DHT22;9119;50.932;5.342;2023-06-22T00:26:18;22.40;99.90
17988;DHT22;9119;50.932;5.342;2023-06-22T00:28:44;22.40;99.90
17988;DHT22;9119;50.932;5.342;2023-06-22T00:31:10;22.40;99.90
17988;DHT22;9119;50.932;5.342;2023-06-22T00:33:35;22.40;99.90
17988;DHT22;9119;50.932;5.342;2023-06-22T00:36:01;22.30;99.90
17988;DHT22;9119;50.932;5.342;2023-06-22T00:38:28;22.20;99.90
17988;DHT22;9119;50.932;5.342;2023-06-22T00:40:54;22.30;99.90
17988;DHT22;9119;50.932;5.342;2023-06-22T00:43:20;22.30;99.90
17988;DHT22;9119;50.932;5.342;2023-06-22T00:45:46;22.30;99.90
17988;DHT22;9119;50.932;5.342;2023-06-22T00:48:12;22.10;99.90
17988;DHT22;9119;50.932;5.342;2023-06-22T00:50:39;22.10;99.90
17988;DHT22;9119;50.932;5.342;2023-06-22T00:53:07;22.10;99.90
17988;DHT22;9119;50.932;5.342;2023-06-22T00:55:37;22.00;99.90
17988;DHT22;9119;50.932;5.342;2023-06-22T00:58:07;22.00;99.90
17988;DHT22;9119;50.932;5.342;2023-06-22T01:00:36;21.90;99.90
17988;DHT22;9119;50.932;5.342;2023-06-22T01:03:03;21.90;99.90
17988;DHT22;9119;50.932;5.342;2023-06-22T01:05:29;21.90;99.90
17988;DHT22;9119;50.932;5.342;2023-06-22T01:10:55;22.00;99.90
17988;DHT22;9119;50.932;5.342;2023-06-22T01:13:45;22.00;99.90
17988;DHT22;9119;50.932;5.342;2023-06-22T01:16:19;22.10;99.90
17988;DHT22;9119;50.932;5.342;2023-06-22T01:18:48;22.00;99.90
17988;DHT22;9119;50.932;5.342;2023-06-22T01:21:18;22.10;99.90
17988;DHT22;9119;50.932;5.342;2023-06-22T01:23:56;22.10;99.90
17988;DHT22;9119;50.932;5.342;2023-06-22T01:29:29;22.00;99.90
17988;DHT22;9119;50.932;5.342;2023-06-22T01:31:56;21.90;99.90
17988;DHT22;9119;50.932;5.342;2023-06-22T01:34:23;21.80;99.90
17988;DHT22;9119;50.932;5.342;2023-06-22T01:36:50;21.90;99.90
17988;DHT22;9119;50.932;5.342;2023-06-22T01:39:17;21.90;99.90
17988;DHT22;9119;50.932;5.342;2023-06-22T01:41:44;22.00;99.90
17988;DHT22;9119;50.932;5.342;2023-06-22T01:44:10;22.00;99.90
17988;DHT22;9119;50.932;5.342;2023-06-22T01:46:38;21.90;99.90
17988;DHT22;9119;50.932;5.342;2023-06-22T01:49:06;21.80;99.90
17988;DHT22;9119;50.932;5.342;2023-06-22T01:51:32;21.80;99.90
17988;DHT22;9119;50.932;5.342;2023-06-22T01:53:58;21.70;99.90
17988;DHT22;9119;50.932;5.342;2023-06-22T01:56:23;21.60;99.90
17988;DHT22;9119;50.932;5.342;2023-06-22T02:02:07;21.80;99.90
17988;DHT22;9119;50.932;5.342;2023-06-22T02:04:51;21.70;99.90
17988;DHT22;9119;50.932;5.342;2023-06-22T02:07:23;21.70;99.90
17988;DHT22;9119;50.932;5.342;2023-06-22T02:09:51;21.50;99.90
17988;DHT22;9119;50.932;5.342;2023-06-22T02:12:21;21.40;99.90
17988;DHT22;9119;50.932;5.342;2023-06-22T02:14:48;21.40;99.90
17988;DHT22;9119;50.932;5.342;2023-06-22T02:17:14;21.40;99.90
17988;DHT22;9119;50.932;5.342;2023-06-22T02:19:42;21.40;99.90
17988;DHT22;9119;50.932;5.342;2023-06-22T02:22:08;21.40;99.90
17988;DHT22;9119;50.932;5.342;2023-06-22T02:24:34;21.30;99.90
17988;DHT22;9119;50.932;5.342;2023-06-22T02:27:00;21.30;99.90
17988;DHT22;9119;50.932;5.342;2023-06-22T02:29:27;21.40;99.90
17988;DHT22;9119;50.932;5.342;2023-06-22T02:31:53;21.40;99.90
17988;DHT22;9119;50.932;5.342;2023-06-22T02:34:19;21.40;99.90
17988;DHT22;9119;50.932;5.342;2023-06-22T02:36:48;21.30;99.90
17988;DHT22;9119;50.932;5.342;2023-06-22T02:39:22;21.20;99.90
17988;DHT22;9119;50.932;5.342;2023-06-22T02:41:57;21.20;99.90
17988;DHT22;9119;50.932;5.342;2023-06-22T02:44:25;21.40;99.90
17988;DHT22;9119;50.932;5.342;2023-06-22T02:46:51;21.60;99.90
17988;DHT22;9119;50.932;5.342;2023-06-22T02:49:17;21.60;99.90
17988;DHT22;9119;50.932;5.342;2023-06-22T02:51:45;21.30;99.90
17988;DHT22;9119;50.932;5.342;2023-06-22T02:54:11;21.30;99.90
17988;DHT22;9119;50.932;5.342;2023-06-22T02:56:37;21.20;99.90
17988;DHT22;9119;50.932;5.342;2023-06-22T02:59:03;21.20;99.90
17988;DHT22;9119;50.932;5.342;2023-06-22T03:01:29;21.20;99.90
17988;DHT22;9119;50.932;5.342;2023-06-22T03:03:56;21.10;99.90
17988;DHT22;9119;50.932;5.342;2023-06-22T03:06:22;21.10;99.90
17988;DHT22;9119;50.932;5.342;2023-06-22T03:08:51;21.20;99.90
17988;DHT22;9119;50.932;5.342;2023-06-22T03:11:17;21.10;99.90
17988;DHT22;9119;50.932;5.342;2023-06-22T03:13:43;21.10;99.90
17988;DHT22;9119;50.932;5.342;2023-06-22T03:16:09;21.10;99.90
17988;DHT22;9119;50.932;5.342;2023-06-22T03:18:34;21.10;99.90
17988;DHT22;9119;50.932;5.342;2023-06-22T03:21:00;21.00;99.90
17988;DHT22;9119;50.932;5.342;2023-06-22T03:23:27;21.00;99.90
17988;DHT22;9119;50.932;5.342;2023-06-22T03:25:53;20.90;99.90
17988;DHT22;9119;50.932;5.342;2023-06-22T03:28:21;21.00;99.90
17988;DHT22;9119;50.932;5.342;2023-06-22T03:30:47;21.00;99.90
17988;DHT22;9119;50.932;5.342;2023-06-22T03:33:13;21.00;99.90
17988;DHT22;9119;50.932;5.342;2023-06-22T03:35:38;20.90;99.90
17988;DHT22;9119;50.932;5.342;2023-06-22T03:38:04;21.00;99.90
17988;DHT22;9119;50.932;5.342;2023-06-22T03:40:30;21.00;99.90
17988;DHT22;9119;50.932;5.342;2023-06-22T03:42:55;21.10;99.90
17988;DHT22;9119;50.932;5.342;2023-06-22T03:45:21;21.20;99.90
17988;DHT22;9119;50.932;5.342;2023-06-22T03:47:47;21.20;99.90
17988;DHT22;9119;50.932;5.342;2023-06-22T03:50:12;21.10;99.90
17988;DHT22;9119;50.932;5.342;2023-06-22T03:52:40;21.20;99.90
17988;DHT22;9119;50.932;5.342;2023-06-22T03:55:06;21.20;99.90
17988;DHT22;9119;50.932;5.342;2023-06-22T03:57:32;21.40;99.90
17988;DHT22;9119;50.932;5.342;2023-06-22T03:59:58;21.30;99.90
17988;DHT22;9119;50.932;5.342;2023-06-22T04:02:24;21.30;99.90
17988;DHT22;9119;50.932;5.342;2023-06-22T04:04:50;21.30;99.90
17988;DHT22;9119;50.932;5.342;2023-06-22T04:07:16;21.30;99.90
17988;DHT22;9119;50.932;5.342;2023-06-22T04:09:43;21.40;99.90
17988;DHT22;9119;50.932;5.342;2023-06-22T04:12:09;21.50;99.90
17988;DHT22;9119;50.932;5.342;2023-06-22T04:14:34;21.50;99.90
17988;DHT22;9119;50.932;5.342;2023-06-22T04:17:00;21.60;99.90
17988;DHT22;9119;50.932;5.342;2023-06-22T04:19:26;21.60;99.90
17988;DHT22;9119;50.932;5.342;2023-06-22T04:21:52;21.70;99.90
17988;DHT22;9119;50.932;5.342;2023-06-22T04:24:18;21.70;99.90
17988;DHT22;9119;50.932;5.342;2023-06-22T04:26:44;21.90;99.90
17988;DHT22;9119;50.932;5.342;2023-06-22T04:29:11;21.90;99.90
17988;DHT22;9119;50.932;5.342;2023-06-22T04:31:37;21.90;99.90
17988;DHT22;9119;50.932;5.342;2023-06-22T04:34:04;21.90;99.90
17988;DHT22;9119;50.932;5.342;2023-06-22T04:36:40;22.00;99.90
17988;DHT22;9119;50.932;5.342;2023-06-22T04:39:08;22.10;99.90
17988;DHT22;9119;50.932;5.342;2023-06-22T04:41:36;22.10;99.90
17988;DHT22;9119;50.932;5.342;2023-06-22T04:44:11;22.10;99.90
17988;DHT22;9119;50.932;5.342;2023-06-22T04:46:38;22.00;99.90
17988;DHT22;9119;50.932;5.342;2023-06-22T04:49:07;21.90;99.90
17988;DHT22;9119;50.932;5.342;2023-06-22T04:51:40;21.80;99.90
17988;DHT22;9119;50.932;5.342;2023-06-22T04:54:07;21.70;99.90
17988;DHT22;9119;50.932;5.342;2023-06-22T04:56:33;21.60;99.90
17988;DHT22;9119;50.932;5.342;2023-06-22T04:58:59;21.50;99.90
17988;DHT22;9119;50.932;5.342;2023-06-22T05:01:25;21.40;99.90
17988;DHT22;9119;50.932;5.342;2023-06-22T05:03:51;21.40;99.90
17988;DHT22;9119;50.932;5.342;2023-06-22T05:06:21;21.20;99.90
17988;DHT22;9119;50.932;5.342;2023-06-22T05:08:53;21.00;99.90
17988;DHT22;9119;50.932;5.342;2023-06-22T05:11:28;20.90;99.90
17988;DHT22;9119;50.932;5.342;2023-06-22T05:13:55;20.90;99.90
17988;DHT22;9119;50.932;5.342;2023-06-22T05:16:23;20.90;99.90
17988;DHT22;9119;50.932;5.342;2023-06-22T05:18:53;20.80;99.90
17988;DHT22;9119;50.932;5.342;2023-06-22T05:21:26;20.90;99.90
17988;DHT22;9119;50.932;5.342;2023-06-22T05:23:56;20.90;99.90
17988;DHT22;9119;50.932;5.342;2023-06-22T05:26:25;20.70;99.90
17988;DHT22;9119;50.932;5.342;2023-06-22T05:28:51;20.70;99.90
17988;DHT22;9119;50.932;5.342;2023-06-22T05:31:18;20.60;99.90
17988;DHT22;9119;50.932;5.342;2023-06-22T05:33:47;20.40;99.90
17988;DHT22;9119;50.932;5.342;2023-06-22T05:36:14;20.50;99.90
17988;DHT22;9119;50.932;5.342;2023-06-22T05:38:41;20.60;99.90
17988;DHT22;9119;50.932;5.342;2023-06-22T05:41:06;20.70;99.90
17988;DHT22;9119;50.932;5.342;2023-06-22T05:43:32;20.50;99.90
17988;DHT22;9119;50.932;5.342;2023-06-22T05:46:01;20.50;99.90
17988;DHT22;9119;50.932;5.342;2023-06-22T05:48:27;20.70;99.90
17988;DHT22;9119;50.932;5.342;2023-06-22T05:50:54;20.70;99.90
17988;DHT22;9119;50.932;5.342;2023-06-22T05:53:19;20.70;99.90
17988;DHT22;9119;50.932;5.342;2023-06-22T05:55:45;20.70;99.90
17988;DHT22;9119;50.932;5.342;2023-06-22T05:58:11;20.70;99.90
17988;DHT22;9119;50.932;5.342;2023-06-22T06:00:39;20.70;99.90
17988;DHT22;9119;50.932;5.342;2023-06-22T06:03:05;20.80;99.90
17988;DHT22;9119;50.932;5.342;2023-06-22T06:05:34;20.70;99.90
17988;DHT22;9119;50.932;5.342;2023-06-22T06:08:01;20.70;99.90
17988;DHT22;9119;50.932;5.342;2023-06-22T06:10:27;20.70;99.90
17988;DHT22;9119;50.932;5.342;2023-06-22T06:12:55;20.80;99.90
17988;DHT22;9119;50.932;5.342;2023-06-22T06:15:21;20.80;99.90
17988;DHT22;9119;50.932;5.342;2023-06-22T06:17:51;20.90;99.90
17988;DHT22;9119;50.932;5.342;2023-06-22T06:20:22;20.80;99.90
17988;DHT22;9119;50.932;5.342;2023-06-22T06:22:49;20.70;99.90
17988;DHT22;9119;50.932;5.342;2023-06-22T06:25:15;20.60;99.90
17988;DHT22;9119;50.932;5.342;2023-06-22T06:27:46;20.70;99.90
17988;DHT22;9119;50.932;5.342;2023-06-22T06:30:13;20.70;99.90
17988;DHT22;9119;50.932;5.342;2023-06-22T06:32:39;20.80;99.90
17988;DHT22;9119;50.932;5.342;2023-06-22T06:35:09;20.80;99.90
17988;DHT22;9119;50.932;5.342;2023-06-22T06:37:39;20.70;99.90
17988;DHT22;9119;50.932;5.342;2023-06-22T06:40:06;20.70;99.90
17988;DHT22;9119;50.932;5.342;2023-06-22T06:42:46;20.60;99.90
17988;DHT22;9119;50.932;5.342;2023-06-22T06:45:22;20.60;99.90
17988;DHT22;9119;50.932;5.342;2023-06-22T06:47:49;20.60;99.90
17988;DHT22;9119;50.932;5.342;2023-06-22T06:50:15;20.60;99.90
17988;DHT22;9119;50.932;5.342;2023-06-22T06:52:42;20.80;99.90
17988;DHT22;9119;50.932;5.342;2023-06-22T06:55:08;20.90;99.90
17988;DHT22;9119;50.932;5.342;2023-06-22T06:57:40;21.10;99.90
17988;DHT22;9119;50.932;5.342;2023-06-22T07:00:08;21.00;99.90
17988;DHT22;9119;50.932;5.342;2023-06-22T07:02:46;20.80;99.90
17988;DHT22;9119;50.932;5.342;2023-06-22T07:05:13;21.00;99.90
17988;DHT22;9119;50.932;5.342;2023-06-22T07:07:39;21.20;99.90
17988;DHT22;9119;50.932;5.342;2023-06-22T07:10:06;21.20;99.90
17988;DHT22;9119;50.932;5.342;2023-06-22T07:12:32;21.30;99.90
17988;DHT22;9119;50.932;5.342;2023-06-22T07:15:05;21.30;99.90
17988;DHT22;9119;50.932;5.342;2023-06-22T07:17:33;21.30;99.90
17988;DHT22;9119;50.932;5.342;2023-06-22T07:19:59;21.50;99.90
17988;DHT22;9119;50.932;5.342;2023-06-22T07:22:24;21.70;99.90
17988;DHT22;9119;50.932;5.342;2023-06-22T07:24:50;21.80;99.90
17988;DHT22;9119;50.932;5.342;2023-06-22T07:27:16;21.70;99.90
17988;DHT22;9119;50.932;5.342;2023-06-22T07:29:45;21.50;99.90
17988;DHT22;9119;50.932;5.342;2023-06-22T07:32:11;21.20;99.90
17988;DHT22;9119;50.932;5.342;2023-06-22T07:34:36;21.20;99.90
17988;DHT22;9119;50.932;5.342;2023-06-22T07:37:02;21.30;99.90
17988;DHT22;9119;50.932;5.342;2023-06-22T07:39:29;21.60;99.90
17988;DHT22;9119;50.932;5.342;2023-06-22T07:41:55;21.80;99.90
17988;DHT22;9119;50.932;5.342;2023-06-22T07:44:21;21.90;99.90
17988;DHT22;9119;50.932;5.342;2023-06-22T07:46:47;21.80;99.90
17988;DHT22;9119;50.932;5.342;2023-06-22T07:49:12;21.70;99.90
17988;DHT22;9119;50.932;5.342;2023-06-22T07:51:38;21.70;99.90
17988;DHT22;9119;50.932;5.342;2023-06-22T07:54:04;21.70;99.90
17988;DHT22;9119;50.932;5.342;2023-06-22T07:56:29;21.90;99.90
17988;DHT22;9119;50.932;5.342;2023-06-22T07:58:55;22.00;99.90
17988;DHT22;9119;50.932;5.342;2023-06-22T08:01:23;22.20;99.90
17988;DHT22;9119;50.932;5.342;2023-06-22T08:03:52;22.30;99.90
17988;DHT22;9119;50.932;5.342;2023-06-22T08:06:18;22.40;99.90
17988;DHT22;9119;50.932;5.342;2023-06-22T08:08:43;22.60;99.90
17988;DHT22;9119;50.932;5.342;2023-06-22T08:11:09;22.70;99.90
17988;DHT22;9119;50.932;5.342;2023-06-22T08:13:35;22.80;99.90
17988;DHT22;9119;50.932;5.342;2023-06-22T08:16:01;22.80;99.90
17988;DHT22;9119;50.932;5.342;2023-06-22T08:18:26;22.90;99.90
17988;DHT22;9119;50.932;5.342;2023-06-22T08:20:52;23.10;99.90
17988;DHT22;9119;50.932;5.342;2023-06-22T08:23:18;23.20;99.90
17988;DHT22;9119;50.932;5.342;2023-06-22T08:25:44;23.00;99.90
17988;DHT22;9119;50.932;5.342;2023-06-22T08:28:09;22.90;99.90
17988;DHT22;9119;50.932;5.342;2023-06-22T08:30:35;23.00;99.90
17988;DHT22;9119;50.932;5.342;2023-06-22T08:33:01;22.90;99.90
17988;DHT22;9119;50.932;5.342;2023-06-22T08:35:26;22.90;99.90
17988;DHT22;9119;50.932;5.342;2023-06-22T08:37:52;23.10;99.90
17988;DHT22;9119;50.932;5.342;2023-06-22T08:40:21;23.20;99.90
17988;DHT22;9119;50.932;5.342;2023-06-22T08:42:47;23.30;99.90
17988;DHT22;9119;50.932;5.342;2023-06-22T08:45:13;23.50;99.90
17988;DHT22;9119;50.932;5.342;2023-06-22T08:47:40;23.40;99.90
17988;DHT22;9119;50.932;5.342;2023-06-22T08:50:09;23.40;99.90
17988;DHT22;9119;50.932;5.342;2023-06-22T08:52:36;23.30;99.90
17988;DHT22;9119;50.932;5.342;2023-06-22T08:55:03;23.40;99.90
17988;DHT22;9119;50.932;5.342;2023-06-22T08:57:28;23.40;99.90
17988;DHT22;9119;50.932;5.342;2023-06-22T08:59:56;23.60;99.90
17988;DHT22;9119;50.932;5.342;2023-06-22T09:02:24;23.60;99.90
17988;DHT22;9119;50.932;5.342;2023-06-22T09:04:50;23.70;99.90
17988;DHT22;9119;50.932;5.342;2023-06-22T09:07:21;23.70;99.90
17988;DHT22;9119;50.932;5.342;2023-06-22T09:09:48;23.70;99.90
17988;DHT22;9119;50.932;5.342;2023-06-22T09:12:14;23.80;99.90
17988;DHT22;9119;50.932;5.342;2023-06-22T09:14:40;23.80;99.90
17988;DHT22;9119;50.932;5.342;2023-06-22T09:17:06;23.90;99.90
17988;DHT22;9119;50.932;5.342;2023-06-22T09:19:31;23.80;99.90
17988;DHT22;9119;50.932;5.342;2023-06-22T09:21:57;23.70;99.90
17988;DHT22;9119;50.932;5.342;2023-06-22T09:24:23;23.70;99.90
17988;DHT22;9119;50.932;5.342;2023-06-22T09:26:48;23.50;99.90
17988;DHT22;9119;50.932;5.342;2023-06-22T09:29:14;23.30;99.90
17988;DHT22;9119;50.932;5.342;2023-06-22T09:31:40;23.40;99.90
17988;DHT22;9119;50.932;5.342;2023-06-22T09:34:06;23.40;99.90
17988;DHT22;9119;50.932;5.342;2023-06-22T09:36:32;23.50;99.90
17988;DHT22;9119;50.932;5.342;2023-06-22T09:38:57;23.40;99.90
17988;DHT22;9119;50.932;5.342;2023-06-22T09:41:24;23.40;99.90
17988;DHT22;9119;50.932;5.342;2023-06-22T09:43:50;23.30;99.90
17988;DHT22;9119;50.932;5.342;2023-06-22T09:46:16;23.50;99.90
17988;DHT22;9119;50.932;5.342;2023-06-22T09:48:42;23.50;99.90
17988;DHT22;9119;50.932;5.342;2023-06-22T09:51:08;23.50;99.90
17988;DHT22;9119;50.932;5.342;2023-06-22T09:53:34;23.50;99.90
17988;DHT22;9119;50.932;5.342;2023-06-22T09:56:03;23.60;99.90
17988;DHT22;9119;50.932;5.342;2023-06-22T09:58:29;23.60;99.90
17988;DHT22;9119;50.932;5.342;2023-06-22T10:00:58;23.40;99.90
17988;DHT22;9119;50.932;5.342;2023-06-22T10:03:23;23.30;99.90
17988;DHT22;9119;50.932;5.342;2023-06-22T10:05:49;23.10;99.90
17988;DHT22;9119;50.932;5.342;2023-06-22T10:08:15;23.00;99.90
17988;DHT22;9119;50.932;5.342;2023-06-22T10:10:40;22.80;99.90
17988;DHT22;9119;50.932;5.342;2023-06-22T10:13:09;23.00;99.90
17988;DHT22;9119;50.932;5.342;2023-06-22T10:15:36;23.00;99.90
17988;DHT22;9119;50.932;5.342;2023-06-22T10:18:02;23.00;99.90
17988;DHT22;9119;50.932;5.342;2023-06-22T10:20:27;22.70;99.90
17988;DHT22;9119;50.932;5.342;2023-06-22T10:22:54;22.50;99.90
17988;DHT22;9119;50.932;5.342;2023-06-22T10:25:19;22.40;99.90
17988;DHT22;9119;50.932;5.342;2023-06-22T10:27:45;22.10;99.90
17988;DHT22;9119;50.932;5.342;2023-06-22T10:30:12;22.10;99.90
17988;DHT22;9119;50.932;5.342;2023-06-22T10:32:39;22.00;99.90
17988;DHT22;9119;50.932;5.342;2023-06-22T10:35:05;21.70;99.90
17988;DHT22;9119;50.932;5.342;2023-06-22T10:37:31;21.60;99.90
17988;DHT22;9119;50.932;5.342;2023-06-22T10:39:57;21.50;99.90
17988;DHT22;9119;50.932;5.342;2023-06-22T10:42:23;21.30;99.90
17988;DHT22;9119;50.932;5.342;2023-06-22T10:44:48;21.20;99.90
17988;DHT22;9119;50.932;5.342;2023-06-22T10:47:14;21.30;99.90
17988;DHT22;9119;50.932;5.342;2023-06-22T10:49:40;21.40;99.90
17988;DHT22;9119;50.932;5.342;2023-06-22T10:52:07;21.30;99.90
17988;DHT22;9119;50.932;5.342;2023-06-22T10:54:34;21.30;99.90
17988;DHT22;9119;50.932;5.342;2023-06-22T10:57:01;21.10;99.90
17988;DHT22;9119;50.932;5.342;2023-06-22T10:59:28;21.10;99.90
17988;DHT22;9119;50.932;5.342;2023-06-22T11:01:55;21.00;99.90
17988;DHT22;9119;50.932;5.342;2023-06-22T11:04:21;21.00;99.90
17988;DHT22;9119;50.932;5.342;2023-06-22T11:06:48;20.90;99.90
17988;DHT22;9119;50.932;5.342;2023-06-22T11:09:14;21.00;99.90
17988;DHT22;9119;50.932;5.342;2023-06-22T11:11:46;21.10;99.90
17988;DHT22;9119;50.932;5.342;2023-06-22T11:14:11;21.20;99.90
17988;DHT22;9119;50.932;5.342;2023-06-22T11:16:37;21.10;99.90
17988;DHT22;9119;50.932;5.342;2023-06-22T11:19:05;21.10;99.90
17988;DHT22;9119;50.932;5.342;2023-06-22T11:21:31;21.00;99.90
17988;DHT22;9119;50.932;5.342;2023-06-22T11:23:57;21.20;99.90
17988;DHT22;9119;50.932;5.342;2023-06-22T11:26:22;21.30;99.90
17988;DHT22;9119;50.932;5.342;2023-06-22T11:28:48;21.50;99.90
17988;DHT22;9119;50.932;5.342;2023-06-22T11:31:14;21.30;99.90
17988;DHT22;9119;50.932;5.342;2023-06-22T11:33:40;21.50;99.90
17988;DHT22;9119;50.932;5.342;2023-06-22T11:36:05;21.50;99.90
17988;DHT22;9119;50.932;5.342;2023-06-22T11:38:31;21.60;99.90
17988;DHT22;9119;50.932;5.342;2023-06-22T11:41:00;21.60;99.90
17988;DHT22;9119;50.932;5.342;2023-06-22T11:43:26;21.70;99.90
17988;DHT22;9119;50.932;5.342;2023-06-22T11:45:52;21.60;99.90
17988;DHT22;9119;50.932;5.342;2023-06-22T11:48:18;21.30;99.90
17988;DHT22;9119;50.932;5.342;2023-06-22T11:50:43;21.50;99.90
17988;DHT22;9119;50.932;5.342;2023-06-22T11:53:09;21.60;99.90
17988;DHT22;9119;50.932;5.342;2023-06-22T11:55:34;21.50;99.90
17988;DHT22;9119;50.932;5.342;2023-06-22T11:58:00;21.40;99.90
17988;DHT22;9119;50.932;5.342;2023-06-22T12:00:29;21.00;99.90
17988;DHT22;9119;50.932;5.342;2023-06-22T12:02:55;21.00;99.90
17988;DHT22;9119;50.932;5.342;2023-06-22T12:05:22;21.00;99.90
17988;DHT22;9119;50.932;5.342;2023-06-22T12:07:48;20.90;99.90
17988;DHT22;9119;50.932;5.342;2023-06-22T12:10:14;20.90;99.90
17988;DHT22;9119;50.932;5.342;2023-06-22T12:12:40;20.80;99.90
17988;DHT22;9119;50.932;5.342;2023-06-22T12:15:06;20.60;99.90
17988;DHT22;9119;50.932;5.342;2023-06-22T12:17:33;20.60;99.90
17988;DHT22;9119;50.932;5.342;2023-06-22T12:19:59;20.60;99.90
17988;DHT22;9119;50.932;5.342;2023-06-22T12:22:25;20.60;99.90
17988;DHT22;9119;50.932;5.342;2023-06-22T12:24:50;20.50;99.90
17988;DHT22;9119;50.932;5.342;2023-06-22T12:27:17;20.50;99.90
17988;DHT22;9119;50.932;5.342;2023-06-22T12:29:46;20.50;99.90
17988;DHT22;9119;50.932;5.342;2023-06-22T12:32:13;20.50;99.90
17988;DHT22;9119;50.932;5.342;2023-06-22T12:34:39;20.40;99.90
17988;DHT22;9119;50.932;5.342;2023-06-22T12:37:05;20.40;99.90
17988;DHT22;9119;50.932;5.342;2023-06-22T12:39:32;20.50;99.90
17988;DHT22;9119;50.932;5.342;2023-06-22T12:41:57;20.40;99.90
17988;DHT22;9119;50.932;5.342;2023-06-22T12:44:23;20.40;99.90
17988;DHT22;9119;50.932;5.342;2023-06-22T12:46:49;20.40;99.90
17988;DHT22;9119;50.932;5.342;2023-06-22T12:49:15;20.30;99.90
17988;DHT22;9119;50.932;5.342;2023-06-22T12:51:42;20.30;99.90
17988;DHT22;9119;50.932;5.342;2023-06-22T12:54:08;20.10;99.90
17988;DHT22;9119;50.932;5.342;2023-06-22T12:56:34;20.10;99.90
17988;DHT22;9119;50.932;5.342;2023-06-22T12:58:59;20.10;99.90
17988;DHT22;9119;50.932;5.342;2023-06-22T13:01:27;20.10;99.90
17988;DHT22;9119;50.932;5.342;2023-06-22T13:03:53;20.10;99.90
17988;DHT22;9119;50.932;5.342;2023-06-22T13:06:19;20.20;99.90
17988;DHT22;9119;50.932;5.342;2023-06-22T13:08:45;20.20;99.90
17988;DHT22;9119;50.932;5.342;2023-06-22T13:11:11;20.10;99.90
17988;DHT22;9119;50.932;5.342;2023-06-22T13:13:36;20.10;99.90
17988;DHT22;9119;50.932;5.342;2023-06-22T13:16:02;20.10;99.90
17988;DHT22;9119;50.932;5.342;2023-06-22T13:18:28;20.10;99.90
17988;DHT22;9119;50.932;5.342;2023-06-22T13:20:53;20.00;99.90
17988;DHT22;9119;50.932;5.342;2023-06-22T13:23:21;20.00;99.90
17988;DHT22;9119;50.932;5.342;2023-06-22T13:25:47;20.10;99.90
17988;DHT22;9119;50.932;5.342;2023-06-22T13:28:13;19.90;99.90
17988;DHT22;9119;50.932;5.342;2023-06-22T13:30:42;19.80;99.90
17988;DHT22;9119;50.932;5.342;2023-06-22T13:33:11;19.70;99.90
17988;DHT22;9119;50.932;5.342;2023-06-22T13:35:36;19.60;99.90
17988;DHT22;9119;50.932;5.342;2023-06-22T13:38:03;19.60;99.90
17988;DHT22;9119;50.932;5.342;2023-06-22T13:40:29;19.40;99.90
17988;DHT22;9119;50.932;5.342;2023-06-22T13:42:55;19.50;99.90
17988;DHT22;9119;50.932;5.342;2023-06-22T13:45:21;19.50;99.90
17988;DHT22;9119;50.932;5.342;2023-06-22T13:47:47;19.50;99.90
17988;DHT22;9119;50.932;5.342;2023-06-22T13:50:13;19.40;99.90
17988;DHT22;9119;50.932;5.342;2023-06-22T13:52:39;19.40;99.90
17988;DHT22;9119;50.932;5.342;2023-06-22T13:55:05;19.40;99.90
17988;DHT22;9119;50.932;5.342;2023-06-22T13:57:32;19.30;99.90
17988;DHT22;9119;50.932;5.342;2023-06-22T13:59:59;19.30;99.90
17988;DHT22;9119;50.932;5.342;2023-06-22T14:02:26;19.30;99.90
17988;DHT22;9119;50.932;5.342;2023-06-22T14:04:51;19.30;99.90
17988;DHT22;9119;50.932;5.342;2023-06-22T14:07:17;19.30;99.90
17988;DHT22;9119;50.932;5.342;2023-06-22T14:09:44;19.30;99.90
17988;DHT22;9119;50.932;5.342;2023-06-22T14:12:11;19.20;99.90
17988;DHT22;9119;50.932;5.342;2023-06-22T14:14:36;19.20;99.90
17988;DHT22;9119;50.932;5.342;2023-06-22T14:17:03;19.10;99.90
17988;DHT22;9119;50.932;5.342;2023-06-22T14:19:29;19.10;99.90
17988;DHT22;9119;50.932;5.342;2023-06-22T14:21:55;19.00;99.90
17988;DHT22;9119;50.932;5.342;2023-06-22T14:24:22;19.00;99.90
17988;DHT22;9119;50.932;5.342;2023-06-22T14:26:48;18.90;99.90
17988;DHT22;9119;50.932;5.342;2023-06-22T14:29:13;18.90;99.90
17988;DHT22;9119;50.932;5.342;2023-06-22T14:31:39;18.90;99.90
17988;DHT22;9119;50.932;5.342;2023-06-22T14:34:05;18.80;99.90
17988;DHT22;9119;50.932;5.342;2023-06-22T14:36:31;18.70;99.90
17988;DHT22;9119;50.932;5.342;2023-06-22T14:38:57;18.80;99.90
17988;DHT22;9119;50.932;5.342;2023-06-22T14:41:23;18.70;99.90
17988;DHT22;9119;50.932;5.342;2023-06-22T14:43:50;18.70;99.90
17988;DHT22;9119;50.932;5.342;2023-06-22T14:46:17;18.60;99.90
17988;DHT22;9119;50.932;5.342;2023-06-22T14:48:43;18.60;99.90
17988;DHT22;9119;50.932;5.342;2023-06-22T14:51:09;18.60;99.90
17988;DHT22;9119;50.932;5.342;2023-06-22T14:53:36;18.60;99.90
17988;DHT22;9119;50.932;5.342;2023-06-22T14:56:03;18.50;99.90
17988;DHT22;9119;50.932;5.342;2023-06-22T14:58:30;18.50;99.90
17988;DHT22;9119;50.932;5.342;2023-06-22T15:01:01;18.50;99.90
17988;DHT22;9119;50.932;5.342;2023-06-22T15:03:27;18.50;99.90
17988;DHT22;9119;50.932;5.342;2023-06-22T15:05:55;18.50;99.90
17988;DHT22;9119;50.932;5.342;2023-06-22T15:08:22;18.50;99.90
17988;DHT22;9119;50.932;5.342;2023-06-22T15:10:48;18.50;99.90
17988;DHT22;9119;50.932;5.342;2023-06-22T15:13:14;18.40;99.90
17988;DHT22;9119;50.932;5.342;2023-06-22T15:15:40;18.40;99.90
17988;DHT22;9119;50.932;5.342;2023-06-22T15:18:05;18.40;99.90
17988;DHT22;9119;50.932;5.342;2023-06-22T15:20:31;18.40;99.90
17988;DHT22;9119;50.932;5.342;2023-06-22T15:22:57;18.30;99.90
17988;DHT22;9119;50.932;5.342;2023-06-22T15:25:23;18.30;99.90
17988;DHT22;9119;50.932;5.342;2023-06-22T15:27:49;18.40;99.90
17988;DHT22;9119;50.932;5.342;2023-06-22T15:30:14;18.40;99.90
17988;DHT22;9119;50.932;5.342;2023-06-22T15:32:44;18.40;99.90
17988;DHT22;9119;50.932;5.342;2023-06-22T15:35:13;18.30;99.90
17988;DHT22;9119;50.932;5.342;2023-06-22T15:37:40;18.30;99.90
17988;DHT22;9119;50.932;5.342;2023-06-22T15:40:06;18.40;99.90
17988;DHT22;9119;50.932;5.342;2023-06-22T15:42:33;18.40;99.90
17988;DHT22;9119;50.932;5.342;2023-06-22T15:44:58;18.30;99.90
17988;DHT22;9119;50.932;5.342;2023-06-22T15:47:24;18.30;99.90
17988;DHT22;9119;50.932;5.342;2023-06-22T15:49:50;18.30;99.90
17988;DHT22;9119;50.932;5.342;2023-06-22T15:52:17;18.30;99.90